createdAt,value
2022-08-01T00:02:29.686Z,98461.31
2022-08-01T00:07:34.048Z,98461.22
2022-08-01T00:12:37.134Z,98456.22
2022-08-01T00:17:40.354Z,98452.63
2022-08-01T00:22:44.485Z,98449.84
2022-08-01T00:27:47.520Z,98459.13
2022-08-01T00:32:50.316Z,98456.34
2022-08-01T00:37:54.536Z,98445.25
2022-08-01T00:42:57.443Z,98438.94
2022-08-01T00:48:00.266Z,98448.09
2022-08-01T00:53:04.631Z,98448.69
2022-08-01T00:58:07.659Z,98448.25
2022-08-01T01:03:15.944Z,98450.47
2022-08-01T01:08:26.265Z,98456.09
2022-08-01T01:13:50.453Z,98452.94
2022-08-01T01:18:56.781Z,98462.09
2022-08-01T01:24:14.656Z,98464.63
2022-08-01T01:29:25.982Z,98467.13
2022-08-01T01:34:31.259Z,98463.84
2022-08-01T01:39:35.898Z,98464.50
2022-08-01T01:44:40.653Z,98455.13
2022-08-01T01:49:45.967Z,98460.16
2022-08-01T01:54:51.700Z,98460.84
2022-08-01T01:59:57.951Z,98451.47
2022-08-01T02:05:02.948Z,98449.41
2022-08-01T02:10:07.872Z,98448.56
2022-08-01T02:15:15.065Z,98453.38
2022-08-01T02:20:18.329Z,98456.31
2022-08-01T02:25:27.488Z,98459.59
2022-08-01T02:30:35.074Z,98463.97
2022-08-01T02:36:29.748Z,98460.84
2022-08-01T02:41:09.767Z,98465.56
2022-08-01T02:46:20.399Z,98461.00
2022-08-01T02:51:26.977Z,98459.97
2022-08-01T02:56:36.593Z,98456.63
2022-08-01T03:01:42.020Z,98457.44
2022-08-01T03:06:45.400Z,98448.69
2022-08-01T03:11:50.027Z,98454.94
2022-08-01T03:16:56.076Z,98449.91
2022-08-01T03:22:00.395Z,98456.38
2022-08-01T03:27:04.723Z,98460.94
2022-08-01T03:32:10.492Z,98461.69
2022-08-01T03:37:16.972Z,98470.22
2022-08-01T03:42:22.791Z,98459.56
2022-08-01T03:47:34.369Z,98467.41
2022-08-01T03:52:47.112Z,98465.91
2022-08-01T03:57:51.029Z,98466.09
2022-08-01T04:02:55.864Z,98468.94
2022-08-01T04:08:00.404Z,98465.09
2022-08-01T04:13:03.578Z,98468.56
2022-08-01T04:18:08.223Z,98472.97
2022-08-01T04:23:12.707Z,98483.13
2022-08-01T04:28:17.559Z,98486.69
2022-08-01T04:33:22.450Z,98488.38
2022-08-01T04:38:28.982Z,98489.41
2022-08-01T04:43:31.761Z,98481.28
2022-08-01T04:48:38.590Z,98488.75
2022-08-01T04:53:41.346Z,98489.47
2022-08-01T04:58:45.762Z,98498.63
2022-08-01T05:03:50.696Z,98506.56
2022-08-01T05:08:53.434Z,98509.63
2022-08-01T05:13:56.220Z,98505.41
2022-08-01T05:19:00.350Z,98509.38
2022-08-01T05:24:03.390Z,98507.00
2022-08-01T05:29:06.662Z,98507.94
2022-08-01T05:34:14.890Z,98515.31
2022-08-01T05:39:18.259Z,98515.69
2022-08-01T05:44:22.604Z,98522.31
2022-08-01T05:49:26.843Z,98520.69
2022-08-01T05:54:29.913Z,98523.34
2022-08-01T05:59:32.755Z,98533.66
2022-08-01T06:04:37.072Z,98536.38
2022-08-01T06:09:39.904Z,98538.00
2022-08-01T06:14:42.690Z,98547.59
2022-08-01T06:19:46.891Z,98550.53
2022-08-01T06:24:49.790Z,98554.97
2022-08-01T06:29:54.436Z,98553.53
2022-08-01T06:34:59.121Z,98554.66
2022-08-01T06:40:03.040Z,98564.16
2022-08-01T06:45:06.439Z,98561.50
2022-08-01T06:50:12.150Z,98551.44
2022-08-01T06:55:16.646Z,98558.47
2022-08-01T07:00:23.275Z,98559.75
2022-08-01T07:05:27.996Z,98550.50
2022-08-01T07:10:30.995Z,98556.72
2022-08-01T07:15:33.776Z,98555.97
2022-08-01T07:20:51.175Z,98550.81
2022-08-01T07:25:59.340Z,98557.31
2022-08-01T07:31:03.673Z,98545.16
2022-08-01T07:36:08.159Z,98551.63
2022-08-01T07:41:11.903Z,98554.34
2022-08-01T07:46:15.072Z,98554.81
2022-08-01T07:51:19.350Z,98552.81
2022-08-01T07:56:25.730Z,98556.44
2022-08-01T08:01:28.739Z,98562.47
2022-08-01T08:06:33.048Z,98559.69
2022-08-01T08:11:35.818Z,98564.97
2022-08-01T08:16:38.723Z,98566.91
2022-08-01T08:21:44.402Z,98553.53
2022-08-01T08:26:47.728Z,98554.41
2022-08-01T08:31:56.974Z,98554.16
2022-08-01T08:37:01.462Z,98554.16
2022-08-01T08:42:08.900Z,98556.78
2022-08-01T08:47:18.997Z,98560.63
2022-08-01T08:52:25.127Z,98565.78
2022-08-01T08:57:28.763Z,98560.81
2022-08-01T09:02:31.775Z,98567.78
2022-08-01T09:07:36.022Z,98561.31
2022-08-01T09:12:39.070Z,98557.38
2022-08-01T09:17:43.399Z,98555.81
2022-08-01T09:22:49.230Z,98556.44
2022-08-01T09:28:04.891Z,98558.03
2022-08-01T09:33:17.957Z,98559.91
2022-08-01T09:38:28.087Z,98552.97
2022-08-01T09:43:32.966Z,98562.81
2022-08-01T09:48:37.887Z,98563.75
2022-08-01T09:53:50.945Z,98560.22
2022-08-01T09:59:00.968Z,98576.06
2022-08-01T10:04:10.985Z,98570.56
2022-08-01T10:09:16.489Z,98560.78
2022-08-01T10:14:20.823Z,98563.91
2022-08-01T10:19:25.793Z,98561.66
2022-08-01T10:24:33.850Z,98557.22
2022-08-01T10:29:45.858Z,98556.75
2022-08-01T10:35:06.816Z,98550.44
2022-08-01T10:40:29.968Z,98542.72
2022-08-01T10:45:34.353Z,98545.88
2022-08-01T10:50:42.875Z,98549.59
2022-08-01T10:55:51.104Z,98532.88
2022-08-01T11:01:22.707Z,98524.59
2022-08-01T11:06:30.620Z,98529.59
2022-08-01T11:11:54.883Z,98536.03
2022-08-01T11:16:58.226Z,98532.91
2022-08-01T11:22:04.749Z,98547.34
2022-08-01T11:27:23.642Z,98528.03
2022-08-01T11:32:28.571Z,98531.25
2022-08-01T11:37:32.252Z,98533.56
2022-08-01T11:42:38.404Z,98530.81
2022-08-01T11:47:49.941Z,98527.09
2022-08-01T11:52:59.415Z,98524.84
2022-08-01T11:58:05.386Z,98520.88
2022-08-01T12:03:08.977Z,98530.91
2022-08-01T12:08:12.260Z,98535.09
2022-08-01T12:13:16.447Z,98532.50
2022-08-01T12:18:19.780Z,98523.72
2022-08-01T12:23:22.871Z,98533.22
2022-08-01T12:28:27.131Z,98528.38
2022-08-01T12:33:30.840Z,98519.75
2022-08-01T12:38:33.992Z,98526.41
2022-08-01T12:43:38.099Z,98530.19
2022-08-01T12:48:41.205Z,98532.53
2022-08-01T12:53:44.123Z,98530.84
2022-08-01T12:58:48.216Z,98540.78
2022-08-01T13:04:00.021Z,98538.97
2022-08-01T13:09:07.905Z,98544.13
2022-08-01T13:14:12.146Z,98541.38
2022-08-01T13:19:15.645Z,98535.19
2022-08-01T13:24:25.823Z,98529.69
2022-08-01T13:29:35.109Z,98526.28
2022-08-01T13:34:38.269Z,98527.63
2022-08-01T13:39:45.330Z,98531.44
2022-08-01T13:44:49.533Z,98533.50
2022-08-01T13:49:52.569Z,98533.19
2022-08-01T13:54:56.730Z,98531.28
2022-08-01T14:00:01.650Z,98536.72
2022-08-01T14:05:14.820Z,98531.81
2022-08-01T14:10:19.884Z,98538.19
2022-08-01T14:15:38.265Z,98536.34
2022-08-01T14:20:42.363Z,98547.78
2022-08-01T14:25:58.209Z,98543.88
2022-08-01T14:31:08.861Z,98550.38
2022-08-01T14:36:29.309Z,98541.03
2022-08-01T14:41:33.722Z,98543.19
2022-08-01T14:46:37.934Z,98549.09
2022-08-01T14:52:00.268Z,98547.06
2022-08-01T14:57:04.049Z,98543.56
2022-08-01T15:02:11.491Z,98535.16
2022-08-01T15:07:14.918Z,98536.94
2022-08-01T15:12:17.787Z,98541.28
2022-08-01T15:17:23.727Z,98547.75
2022-08-01T15:22:27.650Z,98546.00
2022-08-01T15:27:30.794Z,98546.50
2022-08-01T15:32:35.207Z,98559.31
2022-08-01T15:37:42.648Z,98559.88
2022-08-01T15:42:46.807Z,98566.56
2022-08-01T15:47:50.935Z,98550.28
2022-08-01T15:52:54.222Z,98553.41
2022-08-01T15:57:57.244Z,98547.81
2022-08-01T16:03:01.314Z,98552.81
2022-08-01T16:08:04.674Z,98537.97
2022-08-01T16:13:08.101Z,98546.31
2022-08-01T16:18:14.459Z,98540.81
2022-08-01T16:23:17.344Z,98554.34
2022-08-01T16:28:21.434Z,98566.41
2022-08-01T16:33:45.221Z,98562.88
2022-08-01T16:38:48.446Z,98567.69
2022-08-01T16:43:53.269Z,98558.72
2022-08-01T16:48:58.780Z,98556.44
2022-08-01T16:54:01.915Z,98557.81
2022-08-01T16:59:04.723Z,98555.53
2022-08-01T17:04:09.010Z,98563.59
2022-08-01T17:09:11.800Z,98555.16
2022-08-01T17:14:15.654Z,98567.16
2022-08-01T17:19:19.827Z,98565.97
2022-08-01T17:24:29.711Z,98558.22
2022-08-01T17:29:43.275Z,98562.34
2022-08-01T17:34:49.980Z,98555.41
2022-08-01T17:39:52.775Z,98549.56
2022-08-01T17:44:55.646Z,98543.97
2022-08-01T17:50:03.855Z,98550.78
2022-08-01T17:55:53.274Z,98558.13
2022-08-01T18:00:30.552Z,98553.94
2022-08-01T18:05:36.844Z,98561.59
2022-08-01T18:10:40.264Z,98563.03
2022-08-01T18:15:45.144Z,98562.94
2022-08-01T18:20:49.264Z,98570.09
2022-08-01T18:25:52.041Z,98569.31
2022-08-01T18:30:54.960Z,98571.25
2022-08-01T18:36:03.678Z,98569.63
2022-08-01T18:41:10.148Z,98579.28
2022-08-01T18:46:12.995Z,98574.28
2022-08-01T18:51:17.199Z,98585.81
2022-08-01T18:56:20.693Z,98580.59
2022-08-01T19:01:24.455Z,98586.03
2022-08-01T19:06:32.339Z,98593.50
2022-08-01T19:11:36.318Z,98601.22
2022-08-01T19:16:39.308Z,98604.91
2022-08-01T19:21:45.002Z,98614.03
2022-08-01T19:26:50.759Z,98616.63
2022-08-01T19:31:56.085Z,98631.22
2022-08-01T19:37:00.429Z,98639.28
2022-08-01T19:42:04.134Z,98648.38
2022-08-01T19:47:07.313Z,98643.50
2022-08-01T19:52:11.907Z,98646.91
2022-08-01T19:57:16.876Z,98645.78
2022-08-01T20:02:20.754Z,98653.78
2022-08-01T20:07:25.071Z,98656.81
2022-08-01T20:12:30.272Z,98657.16
2022-08-01T20:17:33.806Z,98650.56
2022-08-01T20:22:41.456Z,98658.97
2022-08-01T20:27:46.428Z,98671.66
2022-08-01T20:32:49.536Z,98669.94
2022-08-01T20:38:05.464Z,98669.38
2022-08-01T20:43:11.697Z,98688.38
2022-08-01T20:48:16.485Z,98686.97
2022-08-01T20:53:22.125Z,98683.50
2022-08-01T20:58:32.478Z,98685.88
2022-08-01T21:03:46.518Z,98685.09
2022-08-01T21:08:52.349Z,98684.41
2022-08-01T21:13:56.292Z,98687.03
2022-08-01T21:19:19.147Z,98697.88
2022-08-01T21:24:29.892Z,98713.22
2022-08-01T21:29:34.571Z,98703.13
2022-08-01T21:34:39.214Z,98718.09
2022-08-01T21:39:45.017Z,98715.44
2022-08-01T21:44:48.462Z,98710.97
2022-08-01T21:49:51.271Z,98708.00
2022-08-01T21:55:02.554Z,98707.66
2022-08-01T22:00:11.866Z,98701.84
2022-08-01T22:05:49.956Z,98715.34
2022-08-01T22:10:57.865Z,98705.56
2022-08-01T22:16:02.074Z,98720.28
2022-08-01T22:21:05.203Z,98717.59
2022-08-01T22:26:12.008Z,98720.66
2022-08-01T22:31:17.306Z,98714.75
2022-08-01T22:36:21.049Z,98709.06
2022-08-01T22:41:31.183Z,98716.16
2022-08-01T22:47:01.306Z,98714.97
2022-08-01T22:52:08.778Z,98715.16
2022-08-01T22:57:24.603Z,98721.56
2022-08-01T23:02:30.058Z,98724.22
2022-08-01T23:07:35.248Z,98722.38
2022-08-01T23:12:40.634Z,98730.41
2022-08-01T23:17:44.275Z,98733.31
2022-08-01T23:22:48.845Z,98733.94
2022-08-01T23:28:05.566Z,98737.28
2022-08-01T23:33:08.866Z,98738.97
2022-08-01T23:38:11.691Z,98732.38
2022-08-01T23:43:17.490Z,98730.34
2022-08-01T23:48:20.911Z,98728.09
2022-08-01T23:53:23.645Z,98724.84
2022-08-01T23:58:28.658Z,98728.56
